AFR30KG LFPO-EDDF
Flight info
| Callsign | AFR30KG |
|---|---|
| Flight time | 0h 49m |
| Altitude | 23000 |
| Route | RANUX DCT VALEK DCT LIPNI UN858 BETEX Z110 KULZO T847 IMCOM IMCOM1B |
| Aircraft | A320/M-SDE3FGHIRWY/LB1 |
Departure
| Time | 2026-05-05 19:08 |
|---|---|
| Airport | Paris-Orly Airport (LFPO) |
Arrival
| Time | 2026-05-05 19:57 |
|---|---|
| Airport | Frankfurt Main Airport (EDDF) |
| Time | Latitude | Longitude | Altitude | Speed | Heading |
|---|---|---|---|---|---|
| 2026-05-05 18:47 | 48.72611 | 2.36269 | 298 ft | 0 kts | 344° |
| 2026-05-05 18:58 | 48.72608 | 2.36271 | 295 ft | 2 kts | 344° |
| 2026-05-05 18:59 | 48.72590 | 2.36278 | 296 ft | 3 kts | 344° |
| 2026-05-05 18:59 | 48.72570 | 2.36287 | 300 ft | 3 kts | 344° |
| 2026-05-05 18:59 | 48.72551 | 2.36295 | 297 ft | 3 kts | 342° |
| 2026-05-05 18:59 | 48.72533 | 2.36306 | 300 ft | 3 kts | 318° |
| 2026-05-05 19:00 | 48.72524 | 2.36324 | 294 ft | 2 kts | 262° |
| 2026-05-05 19:00 | 48.72527 | 2.36340 | 298 ft | 2 kts | 255° |
| 2026-05-05 19:00 | 48.72530 | 2.36359 | 296 ft | 0 kts | 255° |
| 2026-05-05 19:04 | 48.72528 | 2.36349 | 295 ft | 5 kts | 255° |
| 2026-05-05 19:04 | 48.72514 | 2.36272 | 298 ft | 6 kts | 255° |
| 2026-05-05 19:04 | 48.72497 | 2.36172 | 296 ft | 14 kts | 255° |
| 2026-05-05 19:04 | 48.72469 | 2.35987 | 295 ft | 20 kts | 264° |
| 2026-05-05 19:05 | 48.72480 | 2.35782 | 294 ft | 18 kts | 262° |
| 2026-05-05 19:05 | 48.72438 | 2.35624 | 296 ft | 12 kts | 216° |
| 2026-05-05 19:05 | 48.72372 | 2.35633 | 296 ft | 7 kts | 163° |
| 2026-05-05 19:05 | 48.72335 | 2.35635 | 294 ft | 4 kts | 191° |
| 2026-05-05 19:06 | 48.72290 | 2.35612 | 296 ft | 9 kts | 199° |
| 2026-05-05 19:06 | 48.72212 | 2.35609 | 295 ft | 14 kts | 167° |
| 2026-05-05 19:06 | 48.72108 | 2.35649 | 294 ft | 16 kts | 158° |
| 2026-05-05 19:06 | 48.72038 | 2.35733 | 296 ft | 11 kts | 127° |
| 2026-05-05 19:07 | 48.71990 | 2.35855 | 298 ft | 16 kts | 120° |
| 2026-05-05 19:07 | 48.71979 | 2.36067 | 296 ft | 37 kts | 76° |
| 2026-05-05 19:07 | 48.72113 | 2.36791 | 295 ft | 102 kts | 74° |
| 2026-05-05 19:07 | 48.72359 | 2.38096 | 298 ft | 153 kts | 73° |
| 2026-05-05 19:08 | 48.72650 | 2.39691 | 796 ft | 156 kts | 73° |
| 2026-05-05 19:08 | 48.72914 | 2.41305 | 1453 ft | 161 kts | 72° |
| 2026-05-05 19:08 | 48.73210 | 2.42965 | 2109 ft | 168 kts | 70° |
| 2026-05-05 19:08 | 48.73559 | 2.44803 | 2454 ft | 191 kts | 70° |
| 2026-05-05 19:09 | 48.73968 | 2.46850 | 2814 ft | 214 kts | 72° |
| 2026-05-05 19:09 | 48.74200 | 2.49254 | 3106 ft | 246 kts | 82° |
| 2026-05-05 19:09 | 48.74318 | 2.51880 | 3813 ft | 259 kts | 84° |
| 2026-05-05 19:09 | 48.74401 | 2.54657 | 4757 ft | 264 kts | 86° |
| 2026-05-05 19:10 | 48.74487 | 2.57460 | 5628 ft | 268 kts | 84° |
| 2026-05-05 19:10 | 48.74629 | 2.60276 | 6568 ft | 268 kts | 81° |
| 2026-05-05 19:10 | 48.74879 | 2.63103 | 7324 ft | 276 kts | 82° |
| 2026-05-05 19:10 | 48.75141 | 2.66030 | 8043 ft | 284 kts | 83° |
| 2026-05-05 19:11 | 48.75403 | 2.69015 | 8639 ft | 288 kts | 83° |
| 2026-05-05 19:11 | 48.75664 | 2.72025 | 8670 ft | 285 kts | 83° |
| 2026-05-05 19:11 | 48.75913 | 2.75002 | 8936 ft | 286 kts | 84° |
| 2026-05-05 19:11 | 48.76149 | 2.78030 | 8686 ft | 288 kts | 85° |
| 2026-05-05 19:12 | 48.76370 | 2.80967 | 8818 ft | 285 kts | 85° |
| 2026-05-05 19:12 | 48.76593 | 2.83960 | 9623 ft | 288 kts | 85° |
| 2026-05-05 19:12 | 48.76816 | 2.87039 | 10137 ft | 304 kts | 86° |
| 2026-05-05 19:12 | 48.77054 | 2.90346 | 10384 ft | 327 kts | 85° |
| 2026-05-05 19:13 | 48.77316 | 2.93943 | 10643 ft | 348 kts | 85° |
| 2026-05-05 19:13 | 48.77589 | 2.97595 | 11192 ft | 358 kts | 84° |
| 2026-05-05 19:13 | 48.77944 | 3.01359 | 11850 ft | 364 kts | 81° |
| 2026-05-05 19:13 | 48.78385 | 3.05159 | 12554 ft | 369 kts | 80° |
| 2026-05-05 19:14 | 48.78871 | 3.08999 | 13214 ft | 374 kts | 80° |
| 2026-05-05 19:14 | 48.79373 | 3.12887 | 13872 ft | 378 kts | 80° |
| 2026-05-05 19:14 | 48.79874 | 3.16821 | 14491 ft | 381 kts | 80° |
| 2026-05-05 19:14 | 48.80364 | 3.20792 | 15115 ft | 385 kts | 81° |
| 2026-05-05 19:15 | 48.80843 | 3.24804 | 15749 ft | 388 kts | 81° |
| 2026-05-05 19:15 | 48.81316 | 3.28850 | 16364 ft | 391 kts | 82° |
| 2026-05-05 19:15 | 48.81788 | 3.32928 | 16990 ft | 395 kts | 82° |
| 2026-05-05 19:15 | 48.82402 | 3.37009 | 17601 ft | 400 kts | 74° |
| 2026-05-05 19:16 | 48.83472 | 3.40933 | 18185 ft | 405 kts | 65° |
| 2026-05-05 19:16 | 48.84729 | 3.44769 | 18752 ft | 407 kts | 65° |
| 2026-05-05 19:16 | 48.85991 | 3.48623 | 19352 ft | 408 kts | 65° |
| 2026-05-05 19:16 | 48.87252 | 3.52492 | 19928 ft | 410 kts | 65° |
| 2026-05-05 19:17 | 48.88508 | 3.56365 | 20523 ft | 411 kts | 65° |
| 2026-05-05 19:17 | 48.89775 | 3.60285 | 21096 ft | 412 kts | 65° |
| 2026-05-05 19:17 | 48.91037 | 3.64209 | 21660 ft | 413 kts | 65° |
| 2026-05-05 19:17 | 48.92299 | 3.68142 | 22210 ft | 414 kts | 65° |
| 2026-05-05 19:18 | 48.93561 | 3.72085 | 22681 ft | 416 kts | 65° |
| 2026-05-05 19:18 | 48.94854 | 3.76118 | 22793 ft | 420 kts | 65° |
| 2026-05-05 19:18 | 48.96124 | 3.80076 | 22806 ft | 427 kts | 65° |
| 2026-05-05 19:18 | 48.97430 | 3.84153 | 22806 ft | 429 kts | 65° |
| 2026-05-05 19:19 | 48.98738 | 3.88238 | 22804 ft | 430 kts | 65° |
| 2026-05-05 19:19 | 49.00046 | 3.92330 | 22806 ft | 430 kts | 65° |
| 2026-05-05 19:19 | 49.01351 | 3.96427 | 22804 ft | 430 kts | 65° |
| 2026-05-05 19:19 | 49.02652 | 4.00520 | 22809 ft | 429 kts | 65° |
| 2026-05-05 19:20 | 49.03947 | 4.04609 | 22811 ft | 429 kts | 65° |
| 2026-05-05 19:20 | 49.05244 | 4.08703 | 22811 ft | 428 kts | 65° |
| 2026-05-05 19:20 | 49.06535 | 4.12790 | 22805 ft | 428 kts | 65° |
| 2026-05-05 19:20 | 49.07828 | 4.16885 | 22806 ft | 428 kts | 65° |
| 2026-05-05 19:21 | 49.09120 | 4.20979 | 22805 ft | 428 kts | 65° |
| 2026-05-05 19:21 | 49.10411 | 4.25082 | 22813 ft | 428 kts | 66° |
| 2026-05-05 19:21 | 49.11694 | 4.29174 | 22806 ft | 428 kts | 66° |
| 2026-05-05 19:21 | 49.12980 | 4.33274 | 22806 ft | 428 kts | 66° |
| 2026-05-05 19:22 | 49.14252 | 4.37378 | 22804 ft | 428 kts | 67° |
| 2026-05-05 19:22 | 49.15456 | 4.41532 | 22799 ft | 428 kts | 68° |
| 2026-05-05 19:22 | 49.16602 | 4.45724 | 22792 ft | 428 kts | 69° |
| 2026-05-05 19:22 | 49.17703 | 4.49883 | 22783 ft | 428 kts | 70° |
| 2026-05-05 19:23 | 49.18810 | 4.54113 | 22781 ft | 429 kts | 70° |
| 2026-05-05 19:23 | 49.19919 | 4.58342 | 22785 ft | 429 kts | 70° |
| 2026-05-05 19:23 | 49.21041 | 4.62581 | 22784 ft | 429 kts | 69° |
| 2026-05-05 19:23 | 49.22168 | 4.66796 | 22777 ft | 429 kts | 69° |
| 2026-05-05 19:24 | 49.23305 | 4.71018 | 22781 ft | 429 kts | 69° |
| 2026-05-05 19:24 | 49.24442 | 4.75231 | 22790 ft | 429 kts | 69° |
| 2026-05-05 19:24 | 49.25581 | 4.79453 | 22791 ft | 429 kts | 69° |
| 2026-05-05 19:24 | 49.26715 | 4.83670 | 22794 ft | 429 kts | 69° |
| 2026-05-05 19:25 | 49.27846 | 4.87894 | 22802 ft | 429 kts | 69° |
| 2026-05-05 19:25 | 49.28974 | 4.92121 | 22783 ft | 429 kts | 69° |
| 2026-05-05 19:25 | 49.30101 | 4.96353 | 22780 ft | 429 kts | 69° |
| 2026-05-05 19:25 | 49.31225 | 5.00588 | 22780 ft | 429 kts | 69° |
| 2026-05-05 19:26 | 49.32349 | 5.04830 | 22788 ft | 430 kts | 69° |
| 2026-05-05 19:26 | 49.33473 | 5.09077 | 22791 ft | 430 kts | 69° |
| 2026-05-05 19:26 | 49.34597 | 5.13324 | 22794 ft | 430 kts | 69° |
| 2026-05-05 19:26 | 49.35721 | 5.17582 | 22802 ft | 430 kts | 70° |
| 2026-05-05 19:27 | 49.36855 | 5.21896 | 22799 ft | 430 kts | 70° |
| 2026-05-05 19:27 | 49.37972 | 5.26158 | 22801 ft | 430 kts | 70° |
| 2026-05-05 19:27 | 49.39073 | 5.30361 | 22808 ft | 430 kts | 70° |
| 2026-05-05 19:27 | 49.40188 | 5.34625 | 22790 ft | 430 kts | 70° |
| 2026-05-05 19:28 | 49.41302 | 5.38889 | 22786 ft | 431 kts | 70° |
| 2026-05-05 19:28 | 49.42416 | 5.43159 | 22796 ft | 431 kts | 70° |
| 2026-05-05 19:28 | 49.43529 | 5.47436 | 22797 ft | 432 kts | 70° |
| 2026-05-05 19:28 | 49.44640 | 5.51724 | 22797 ft | 432 kts | 70° |
| 2026-05-05 19:29 | 49.45750 | 5.56012 | 22795 ft | 432 kts | 70° |
| 2026-05-05 19:29 | 49.46862 | 5.60304 | 22798 ft | 432 kts | 70° |
| 2026-05-05 19:29 | 49.48043 | 5.64559 | 22799 ft | 433 kts | 67° |
| 2026-05-05 19:29 | 49.49334 | 5.68746 | 22801 ft | 434 kts | 65° |
| 2026-05-05 19:30 | 49.50692 | 5.72884 | 22802 ft | 434 kts | 64° |
| 2026-05-05 19:30 | 49.52082 | 5.77016 | 22805 ft | 434 kts | 64° |
| 2026-05-05 19:30 | 49.53464 | 5.81138 | 22804 ft | 434 kts | 64° |
| 2026-05-05 19:30 | 49.54829 | 5.85280 | 22793 ft | 434 kts | 65° |
| 2026-05-05 19:31 | 49.56170 | 5.89435 | 22795 ft | 434 kts | 65° |
| 2026-05-05 19:31 | 49.57070 | 5.92260 | 22795 ft | 434 kts | 65° |
| 2026-05-05 19:31 | 49.58393 | 5.96442 | 22794 ft | 434 kts | 65° |
| 2026-05-05 19:31 | 49.59713 | 6.00631 | 22785 ft | 435 kts | 65° |
| 2026-05-05 19:32 | 49.61034 | 6.04822 | 22785 ft | 435 kts | 65° |
| 2026-05-05 19:32 | 49.62362 | 6.09024 | 22783 ft | 436 kts | 65° |
| 2026-05-05 19:32 | 49.64117 | 6.14585 | 22786 ft | 437 kts | 65° |
| 2026-05-05 19:32 | 49.65013 | 6.17427 | 22786 ft | 437 kts | 65° |
| 2026-05-05 19:33 | 49.66327 | 6.21597 | 22788 ft | 437 kts | 65° |
| 2026-05-05 19:33 | 49.67672 | 6.25872 | 22791 ft | 437 kts | 65° |
| 2026-05-05 19:33 | 49.68977 | 6.30040 | 22792 ft | 437 kts | 66° |
| 2026-05-05 19:33 | 49.70317 | 6.34332 | 22782 ft | 437 kts | 66° |
| 2026-05-05 19:34 | 49.71621 | 6.38505 | 22788 ft | 438 kts | 66° |
| 2026-05-05 19:34 | 49.72945 | 6.42740 | 22787 ft | 438 kts | 66° |
| 2026-05-05 19:34 | 49.74267 | 6.46975 | 22790 ft | 438 kts | 66° |
| 2026-05-05 19:35 | 49.76907 | 6.55465 | 22787 ft | 438 kts | 66° |
| 2026-05-05 19:35 | 49.78221 | 6.59711 | 22782 ft | 438 kts | 66° |
| 2026-05-05 19:35 | 49.79535 | 6.63962 | 22777 ft | 438 kts | 66° |
| 2026-05-05 19:35 | 49.80850 | 6.68215 | 22732 ft | 437 kts | 66° |
| 2026-05-05 19:36 | 49.82170 | 6.72483 | 22343 ft | 430 kts | 66° |
| 2026-05-05 19:36 | 49.83453 | 6.76646 | 21845 ft | 427 kts | 66° |
| 2026-05-05 19:36 | 49.84724 | 6.80784 | 21324 ft | 424 kts | 66° |
| 2026-05-05 19:36 | 49.85971 | 6.84847 | 20837 ft | 421 kts | 66° |
| 2026-05-05 19:37 | 49.87227 | 6.88940 | 20363 ft | 419 kts | 66° |
| 2026-05-05 19:37 | 49.88470 | 6.93010 | 19893 ft | 417 kts | 66° |
| 2026-05-05 19:37 | 49.89703 | 6.97064 | 19434 ft | 415 kts | 66° |
| 2026-05-05 19:37 | 49.90928 | 7.01102 | 18971 ft | 413 kts | 66° |
| 2026-05-05 19:38 | 49.92151 | 7.05126 | 18476 ft | 411 kts | 66° |
| 2026-05-05 19:38 | 49.93382 | 7.09172 | 17991 ft | 409 kts | 66° |
| 2026-05-05 19:38 | 49.94577 | 7.13096 | 17434 ft | 406 kts | 66° |
| 2026-05-05 19:38 | 49.95782 | 7.17051 | 16880 ft | 404 kts | 66° |
| 2026-05-05 19:39 | 49.96972 | 7.20974 | 16324 ft | 401 kts | 66° |
| 2026-05-05 19:39 | 49.98153 | 7.24887 | 15800 ft | 398 kts | 66° |
| 2026-05-05 19:39 | 49.99321 | 7.28775 | 15267 ft | 396 kts | 65° |
| 2026-05-05 19:39 | 50.00483 | 7.32647 | 14759 ft | 394 kts | 65° |
| 2026-05-05 19:40 | 50.01642 | 7.36503 | 14273 ft | 393 kts | 65° |
| 2026-05-05 19:40 | 50.02794 | 7.40342 | 13793 ft | 391 kts | 65° |
| 2026-05-05 19:40 | 50.03938 | 7.44167 | 13280 ft | 389 kts | 65° |
| 2026-05-05 19:40 | 50.05074 | 7.47969 | 12747 ft | 386 kts | 65° |
| 2026-05-05 19:41 | 50.06199 | 7.51751 | 12214 ft | 384 kts | 65° |
| 2026-05-05 19:41 | 50.07311 | 7.55502 | 11701 ft | 380 kts | 66° |
| 2026-05-05 19:41 | 50.08088 | 7.59404 | 11209 ft | 376 kts | 80° |
| 2026-05-05 19:41 | 50.08549 | 7.63403 | 10862 ft | 374 kts | 81° |
| 2026-05-05 19:42 | 50.08996 | 7.67382 | 10799 ft | 374 kts | 81° |
| 2026-05-05 19:42 | 50.09438 | 7.71383 | 10818 ft | 374 kts | 81° |
| 2026-05-05 19:42 | 50.09874 | 7.75376 | 10817 ft | 375 kts | 81° |
| 2026-05-05 19:42 | 50.10307 | 7.79378 | 10814 ft | 375 kts | 81° |
| 2026-05-05 19:43 | 50.10737 | 7.83382 | 10780 ft | 374 kts | 81° |
| 2026-05-05 19:43 | 50.11167 | 7.87362 | 10433 ft | 370 kts | 81° |
| 2026-05-05 19:43 | 50.11592 | 7.91298 | 9971 ft | 368 kts | 81° |
| 2026-05-05 19:43 | 50.12012 | 7.95198 | 9644 ft | 358 kts | 81° |
| 2026-05-05 19:44 | 50.12417 | 7.98936 | 9509 ft | 342 kts | 81° |
| 2026-05-05 19:44 | 50.12805 | 8.02518 | 9374 ft | 329 kts | 81° |
| 2026-05-05 19:44 | 50.13174 | 8.05963 | 9241 ft | 316 kts | 82° |
| 2026-05-05 19:44 | 50.13527 | 8.09278 | 9083 ft | 305 kts | 81° |
| 2026-05-05 19:45 | 50.13871 | 8.12507 | 8877 ft | 300 kts | 81° |
| 2026-05-05 19:45 | 50.14213 | 8.15713 | 8829 ft | 299 kts | 82° |
| 2026-05-05 19:45 | 50.14555 | 8.18960 | 8838 ft | 300 kts | 82° |
| 2026-05-05 19:45 | 50.14888 | 8.22116 | 8839 ft | 299 kts | 82° |
| 2026-05-05 19:46 | 50.15225 | 8.25321 | 8839 ft | 300 kts | 82° |
| 2026-05-05 19:46 | 50.15560 | 8.28514 | 8837 ft | 299 kts | 82° |
| 2026-05-05 19:46 | 50.15895 | 8.31730 | 8838 ft | 301 kts | 82° |
| 2026-05-05 19:46 | 50.16228 | 8.34943 | 8839 ft | 301 kts | 82° |
| 2026-05-05 19:47 | 50.16560 | 8.38171 | 8838 ft | 302 kts | 82° |
| 2026-05-05 19:47 | 50.16894 | 8.41397 | 8836 ft | 301 kts | 82° |
| 2026-05-05 19:47 | 50.17228 | 8.44611 | 8714 ft | 299 kts | 82° |
| 2026-05-05 19:47 | 50.17560 | 8.47801 | 8312 ft | 297 kts | 82° |
| 2026-05-05 19:48 | 50.17887 | 8.50979 | 7915 ft | 295 kts | 82° |
| 2026-05-05 19:48 | 50.18210 | 8.54128 | 7531 ft | 293 kts | 82° |
| 2026-05-05 19:48 | 50.18532 | 8.57264 | 7157 ft | 291 kts | 82° |
| 2026-05-05 19:48 | 50.18848 | 8.60367 | 6773 ft | 289 kts | 82° |
| 2026-05-05 19:49 | 50.19161 | 8.63455 | 6370 ft | 286 kts | 82° |
| 2026-05-05 19:49 | 50.19367 | 8.65494 | 6068 ft | 286 kts | 82° |
| 2026-05-05 19:49 | 50.19780 | 8.69578 | 5533 ft | 283 kts | 82° |
| 2026-05-05 19:49 | 50.20085 | 8.72604 | 5138 ft | 282 kts | 82° |
| 2026-05-05 19:50 | 50.20388 | 8.75606 | 4997 ft | 279 kts | 82° |
| 2026-05-05 19:50 | 50.20679 | 8.78609 | 5004 ft | 277 kts | 85° |
| 2026-05-05 19:50 | 50.20514 | 8.81485 | 5003 ft | 257 kts | 109° |
| 2026-05-05 19:50 | 50.19940 | 8.84030 | 5011 ft | 247 kts | 113° |
| 2026-05-05 19:51 | 50.19319 | 8.86521 | 5009 ft | 246 kts | 114° |
| 2026-05-05 19:51 | 50.18444 | 8.88754 | 5007 ft | 239 kts | 141° |
| 2026-05-05 19:51 | 50.17038 | 8.90049 | 5011 ft | 235 kts | 161° |
| 2026-05-05 19:51 | 50.15493 | 8.90835 | 5004 ft | 232 kts | 177° |
| 2026-05-05 19:52 | 50.13942 | 8.90463 | 5005 ft | 226 kts | 209° |
| 2026-05-05 19:52 | 50.12700 | 8.89000 | 5005 ft | 225 kts | 232° |
| 2026-05-05 19:52 | 50.12169 | 8.86766 | 4996 ft | 226 kts | 264° |
| 2026-05-05 19:52 | 50.11969 | 8.84340 | 4764 ft | 225 kts | 252° |
| 2026-05-05 19:53 | 50.11424 | 8.82058 | 4468 ft | 224 kts | 248° |
| 2026-05-05 19:53 | 50.10863 | 8.79808 | 4146 ft | 222 kts | 249° |
| 2026-05-05 19:53 | 50.10334 | 8.77596 | 3829 ft | 213 kts | 250° |
| 2026-05-05 19:53 | 50.09834 | 8.75482 | 3539 ft | 203 kts | 250° |
| 2026-05-05 19:54 | 50.09357 | 8.73463 | 3266 ft | 193 kts | 250° |
| 2026-05-05 19:54 | 50.08907 | 8.71564 | 3000 ft | 182 kts | 249° |
| 2026-05-05 19:54 | 50.08482 | 8.69768 | 2727 ft | 172 kts | 249° |
| 2026-05-05 19:54 | 50.08073 | 8.68044 | 2509 ft | 169 kts | 249° |
| 2026-05-05 19:55 | 50.07669 | 8.66343 | 2246 ft | 167 kts | 249° |
| 2026-05-05 19:55 | 50.07267 | 8.64652 | 2028 ft | 166 kts | 249° |
| 2026-05-05 19:55 | 50.06864 | 8.62960 | 1798 ft | 166 kts | 249° |
| 2026-05-05 19:55 | 50.06481 | 8.61352 | 1465 ft | 154 kts | 249° |
| 2026-05-05 19:56 | 50.06128 | 8.59866 | 1274 ft | 142 kts | 250° |
| 2026-05-05 19:56 | 50.05795 | 8.58454 | 1063 ft | 138 kts | 250° |
| 2026-05-05 19:56 | 50.05456 | 8.57047 | 901 ft | 139 kts | 249° |
| 2026-05-05 19:56 | 50.05127 | 8.55636 | 697 ft | 138 kts | 249° |
| 2026-05-05 19:57 | 50.04792 | 8.54233 | 536 ft | 139 kts | 248° |
| 2026-05-05 19:57 | 50.04571 | 8.53311 | 390 ft | 138 kts | 249° |
| 2026-05-05 19:57 | 50.04378 | 8.52500 | 349 ft | 0 kts | 248° |
| 2026-05-05 19:57 | 50.04341 | 8.52351 | 346 ft | 29 kts | 249° |
| 2026-05-05 19:58 | 50.04254 | 8.51992 | 334 ft | 38 kts | 249° |
| 2026-05-05 19:58 | 50.04142 | 8.51611 | 334 ft | 39 kts | 236° |
| 2026-05-05 19:58 | 50.03942 | 8.51313 | 334 ft | 40 kts | 220° |
| 2026-05-05 19:58 | 50.03885 | 8.51241 | 336 ft | 0 kts | 215° |
| 2026-05-05 19:59 | 50.03884 | 8.51240 | 336 ft | 0 kts | 215° |
| 2026-05-05 20:00 | 50.03880 | 8.51239 | 332 ft | 2 kts | 190° |
| 2026-05-05 20:00 | 50.03888 | 8.51333 | 334 ft | 14 kts | 68° |
| 2026-05-05 20:00 | 50.03918 | 8.51485 | 336 ft | 15 kts | 72° |
| 2026-05-05 20:00 | 50.03956 | 8.51653 | 334 ft | 18 kts | 70° |
| 2026-05-05 20:01 | 50.04004 | 8.51854 | 336 ft | 22 kts | 70° |
| 2026-05-05 20:01 | 50.04055 | 8.52075 | 339 ft | 23 kts | 70° |
| 2026-05-05 20:01 | 50.04113 | 8.52320 | 352 ft | 25 kts | 69° |
| 2026-05-05 20:01 | 50.04180 | 8.52589 | 354 ft | 28 kts | 69° |
| 2026-05-05 20:02 | 50.04251 | 8.52884 | 357 ft | 30 kts | 69° |
| 2026-05-05 20:02 | 50.04322 | 8.53184 | 360 ft | 29 kts | 70° |
| 2026-05-05 20:02 | 50.04389 | 8.53472 | 375 ft | 27 kts | 73° |
| 2026-05-05 20:02 | 50.04412 | 8.53781 | 376 ft | 31 kts | 85° |
| 2026-05-05 20:03 | 50.04437 | 8.54110 | 376 ft | 30 kts | 82° |
| 2026-05-05 20:03 | 50.04453 | 8.54406 | 372 ft | 24 kts | 88° |
| 2026-05-05 20:03 | 50.04403 | 8.54662 | 365 ft | 27 kts | 128° |
| 2026-05-05 20:03 | 50.04253 | 8.54809 | 360 ft | 19 kts | 159° |
| 2026-05-05 20:04 | 50.04171 | 8.54860 | 357 ft | 11 kts | 156° |
| 2026-05-05 20:04 | 50.04088 | 8.54906 | 352 ft | 14 kts | 162° |
| 2026-05-05 20:04 | 50.03986 | 8.54959 | 356 ft | 17 kts | 160° |
| 2026-05-05 20:04 | 50.03868 | 8.55042 | 355 ft | 18 kts | 131° |
| 2026-05-05 20:05 | 50.03873 | 8.55216 | 357 ft | 18 kts | 69° |
| 2026-05-05 20:05 | 50.03919 | 8.55406 | 350 ft | 15 kts | 70° |
| 2026-05-05 20:05 | 50.03968 | 8.55604 | 358 ft | 24 kts | 70° |
| 2026-05-05 20:05 | 50.04034 | 8.55886 | 354 ft | 31 kts | 68° |
| 2026-05-05 20:06 | 50.04113 | 8.56217 | 358 ft | 31 kts | 70° |
| 2026-05-05 20:06 | 50.04188 | 8.56531 | 359 ft | 28 kts | 69° |
| 2026-05-05 20:06 | 50.04259 | 8.56823 | 363 ft | 29 kts | 71° |
| 2026-05-05 20:06 | 50.04332 | 8.57134 | 364 ft | 32 kts | 70° |
| 2026-05-05 20:07 | 50.04412 | 8.57467 | 361 ft | 34 kts | 68° |
| 2026-05-05 20:07 | 50.04493 | 8.57807 | 364 ft | 34 kts | 69° |
| 2026-05-05 20:07 | 50.04579 | 8.58163 | 366 ft | 36 kts | 69° |
| 2026-05-05 20:07 | 50.04659 | 8.58504 | 373 ft | 30 kts | 70° |
| 2026-05-05 20:08 | 50.04711 | 8.58714 | 369 ft | 19 kts | 66° |
| 2026-05-05 20:08 | 50.04759 | 8.58908 | 374 ft | 18 kts | 70° |
| 2026-05-05 20:08 | 50.04794 | 8.59050 | 371 ft | 11 kts | 70° |
| 2026-05-05 20:08 | 50.04810 | 8.59083 | 370 ft | 2 kts | 0° |
| 2026-05-05 20:09 | 50.04840 | 8.59070 | 369 ft | 4 kts | 341° |
| 2026-05-05 20:09 | 50.04865 | 8.59054 | 369 ft | 5 kts | 339° |
| 2026-05-05 20:09 | 50.04878 | 8.59047 | 368 ft | 0 kts | 339° |